Time;durP1;ratioP1;P1;durP2;ratioP2;P2;SDS_P1;SDS_P2;PMS_P1;PMS_P2;Temp;Humidity;BMP_temperature;BMP_pressure;BME280_temperature;BME280_humidity;BME280_pressure;Samples;Min_cycle;Max_cycle;Signal;HPM_P1;HPM_P2
2023/03/07 00:01:21;;;;;;;0.60;0.60;;;;;;;-2.22;65.99;98385.75;5026946;28;20479;-67
2023/03/07 00:03:47;;;;;;;0.70;0.70;;;;;;;-2.05;65.57;98385.09;5025851;28;20030;-67
2023/03/07 00:06:12;;;;;;;0.60;0.60;;;;;;;-1.82;64.65;98385.31;5026463;28;20037;-66
2023/03/07 00:08:38;;;;;;;0.63;0.63;;;;;;;-2.13;65.19;98377.41;5025681;28;20040;-67
2023/03/07 00:11:05;;;;;;;0.60;0.60;;;;;;;-2.12;65.52;98374.00;5026672;28;20032;-65
2023/03/07 00:13:32;;;;;;;0.60;0.60;;;;;;;-2.24;65.97;98373.03;5026811;28;20026;-66
2023/03/07 00:16:07;;;;;;;0.60;0.60;;;;;;;-2.05;65.34;98368.16;5026407;28;20032;-65
2023/03/07 00:18:33;;;;;;;0.60;0.60;;;;;;;-2.07;65.27;98367.28;5026634;28;20029;-66
2023/03/07 00:21:01;;;;;;;0.60;0.60;;;;;;;-1.91;64.68;98359.78;5026383;28;20018;-66
2023/03/07 00:23:27;;;;;;;0.50;0.50;;;;;;;-2.12;64.99;98348.56;5026659;28;20042;-66
2023/03/07 00:26:04;;;;;;;0.60;0.60;;;;;;;-2.02;65.00;98345.28;5026789;28;20037;-67
2023/03/07 00:28:30;;;;;;;0.60;0.60;;;;;;;-1.94;64.21;98321.63;5026620;28;20029;-67
2023/03/07 00:31:01;;;;;;;0.60;0.60;;;;;;;-1.93;64.47;98318.25;5026284;28;20394;-67
2023/03/07 00:33:27;;;;;;;0.60;0.60;;;;;;;-1.79;63.86;98319.19;5026472;28;20037;-67
2023/03/07 00:35:57;;;;;;;0.60;0.60;;;;;;;-1.69;63.34;98321.81;5026144;28;20382;-66
2023/03/07 00:38:23;;;;;;;0.60;0.60;;;;;;;-1.90;63.77;98313.19;5025024;28;20051;-67
2023/03/07 00:40:57;;;;;;;0.60;0.60;;;;;;;-2.06;63.97;98300.31;5026130;28;20537;-65
2023/03/07 00:43:23;;;;;;;0.60;0.60;;;;;;;-1.93;63.70;98310.63;5026240;28;20030;-66
2023/03/07 00:45:48;;;;;;;0.60;0.60;;;;;;;-1.94;64.18;98308.91;5025956;28;20030;-66
2023/03/07 00:48:14;;;;;;;0.60;0.60;;;;;;;-1.65;63.35;98303.19;5026171;28;20045;-66
2023/03/07 00:50:39;;;;;;;0.60;0.60;;;;;;;-2.15;63.12;98231.59;5026143;28;20026;-66
2023/03/07 00:53:04;;;;;;;0.70;0.70;;;;;;;-1.70;63.03;98287.88;5025432;28;20034;-66
2023/03/07 00:55:30;;;;;;;0.60;0.60;;;;;;;-1.83;63.16;98294.56;5025923;28;20489;-66
2023/03/07 00:57:55;;;;;;;0.60;0.60;;;;;;;-1.98;63.62;98291.91;5026129;28;20026;-66
2023/03/07 01:00:21;;;;;;;0.60;0.60;;;;;;;-1.97;63.87;98285.97;5025784;28;20026;-67
2023/03/07 01:02:46;;;;;;;0.60;0.60;;;;;;;-2.07;64.02;98265.56;5025622;28;20108;-66
2023/03/07 01:05:11;;;;;;;1.42;1.38;;;;;;;-1.53;62.30;98265.09;5025796;28;20018;-66
2023/03/07 01:07:37;;;;;;;0.60;0.60;;;;;;;-1.31;61.41;98256.72;5024208;28;20022;-66
2023/03/07 01:10:02;;;;;;;0.60;0.60;;;;;;;-1.54;61.35;98260.84;5025693;28;20022;-66
2023/03/07 01:12:28;;;;;;;0.60;0.60;;;;;;;-1.49;61.53;98248.16;5025755;28;20033;-68
2023/03/07 01:14:53;;;;;;;0.60;0.60;;;;;;;-1.53;61.26;98247.28;5025379;28;20335;-66
2023/03/07 01:17:18;;;;;;;0.60;0.60;;;;;;;-1.39;60.85;98221.06;5024900;28;20149;-65
2023/03/07 01:19:44;;;;;;;0.60;0.60;;;;;;;-1.70;61.96;98224.28;5025421;28;20041;-65
2023/03/07 01:22:09;;;;;;;0.80;0.80;;;;;;;-1.70;61.90;98219.19;5024123;28;20029;-66
2023/03/07 01:24:35;;;;;;;0.60;0.60;;;;;;;-1.73;62.09;98213.22;5025614;28;20049;-65
2023/03/07 01:27:00;;;;;;;0.60;0.60;;;;;;;-1.69;62.02;98209.88;5025560;28;20104;-69
2023/03/07 01:29:25;;;;;;;0.60;0.60;;;;;;;-1.76;61.80;98181.00;5025389;28;20489;-66
2023/03/07 01:31:51;;;;;;;0.70;0.70;;;;;;;-1.84;62.33;98190.28;5025133;28;20018;-67
2023/03/07 01:34:16;;;;;;;0.60;0.60;;;;;;;-1.70;61.80;98187.81;5025719;28;20072;-65
2023/03/07 01:36:41;;;;;;;0.70;0.70;;;;;;;-1.87;62.54;98168.22;5025288;28;20104;-66
2023/03/07 01:39:12;;;;;;;0.60;0.60;;;;;;;-1.75;62.32;98158.09;5024904;28;20021;-67
2023/03/07 01:41:39;;;;;;;0.60;0.60;;;;;;;-1.57;61.88;98163.28;5025339;28;20429;-66
2023/03/07 01:44:14;;;;;;;0.60;0.60;;;;;;;-1.47;61.59;98156.53;5025048;28;20060;-66
2023/03/07 01:46:54;;;;;;;0.60;0.60;;;;;;;-1.80;62.46;98138.56;5023491;28;20494;-67
2023/03/07 01:49:28;;;;;;;0.57;0.57;;;;;;;-1.79;62.68;98138.56;5024689;28;20018;-65
2023/03/07 01:52:03;;;;;;;0.60;0.60;;;;;;;-1.77;62.50;98119.09;5024998;28;20037;-65
2023/03/07 01:54:31;;;;;;;0.70;0.70;;;;;;;-1.80;62.84;98115.66;5025077;28;20070;-65
2023/03/07 01:56:57;;;;;;;0.60;0.60;;;;;;;-1.43;61.54;98097.16;5025093;28;20090;-66
2023/03/07 01:59:39;;;;;;;0.60;0.60;;;;;;;-1.83;62.69;98090.22;5025168;28;20030;-66
2023/03/07 02:02:10;;;;;;;0.70;0.70;;;;;;;-1.54;62.19;98086.94;5025118;28;20104;-66
2023/03/07 02:04:56;;;;;;;0.80;0.80;;;;;;;-1.69;62.32;98080.94;5023684;28;20029;-66
2023/03/07 02:07:27;;;;;;;0.60;0.60;;;;;;;-1.68;62.65;98072.50;5025272;28;20022;-67
2023/03/07 02:09:53;;;;;;;0.60;0.60;;;;;;;-1.54;62.11;98054.72;5024640;28;20350;-67
2023/03/07 02:12:18;;;;;;;0.60;0.60;;;;;;;-1.73;62.66;98047.88;5024485;28;20026;-67
2023/03/07 02:14:46;;;;;;;0.60;0.60;;;;;;;-1.69;62.60;98041.97;5024715;28;20046;-65
2023/03/07 02:17:11;;;;;;;0.60;0.60;;;;;;;-1.68;62.39;98046.19;5024825;28;20014;-66
2023/03/07 02:19:46;;;;;;;0.60;0.60;;;;;;;-1.82;63.16;98036.81;5024664;28;20033;-66
2023/03/07 02:22:16;;;;;;;0.60;0.60;;;;;;;-1.77;63.18;98031.72;5024775;28;20021;-66
2023/03/07 02:24:44;;;;;;;0.60;0.60;;;;;;;-1.67;62.91;98022.44;5024969;28;20018;-66
2023/03/07 02:27:10;;;;;;;0.70;0.70;;;;;;;-1.95;63.80;98032.53;5024689;28;20032;-66
2023/03/07 02:29:35;;;;;;;0.60;0.60;;;;;;;-1.84;63.50;98000.38;5026312;28;20022;-66
2023/03/07 02:32:01;;;;;;;0.60;0.60;;;;;;;-1.87;64.05;98013.06;5028607;28;20485;-67
2023/03/07 02:34:28;;;;;;;0.60;0.60;;;;;;;-1.98;64.11;98018.09;5028348;28;20037;-66
2023/03/07 02:37:03;;;;;;;0.60;0.60;;;;;;;-1.80;63.70;97994.44;5028513;28;20026;-66
2023/03/07 02:39:29;;;;;;;0.63;0.63;;;;;;;-1.69;63.12;97997.00;5028319;28;20050;-67
2023/03/07 02:41:59;;;;;;;0.60;0.60;;;;;;;-1.88;63.88;97998.63;5028532;28;20030;-68
2023/03/07 02:44:25;;;;;;;0.60;0.60;;;;;;;-1.96;64.22;97988.44;5026888;28;20053;-67
2023/03/07 02:46:50;;;;;;;0.60;0.60;;;;;;;-2.04;64.51;97975.72;5028484;28;20034;-67
2023/03/07 02:49:16;;;;;;;0.60;0.60;;;;;;;-1.95;64.75;97968.97;5026793;28;20029;-68
2023/03/07 02:51:42;;;;;;;0.70;0.70;;;;;;;-1.81;65.14;97979.16;5028273;28;20029;-67
2023/03/07 02:54:07;;;;;;;0.70;0.70;;;;;;;-2.16;66.16;97975.66;5027895;28;20058;-67
2023/03/07 02:56:33;;;;;;;0.60;0.60;;;;;;;-2.37;66.92;97978.13;5028125;28;20036;-67
2023/03/07 02:58:58;;;;;;;0.70;0.70;;;;;;;-2.46;67.69;97960.28;5028091;28;20034;-67
2023/03/07 03:01:24;;;;;;;0.60;0.60;;;;;;;-2.39;68.30;97961.16;5026595;28;20033;-69
2023/03/07 03:03:51;;;;;;;0.60;0.60;;;;;;;-2.33;68.70;97958.66;5028249;28;20053;-69
2023/03/07 03:06:16;;;;;;;0.60;0.60;;;;;;;-2.44;69.34;97950.97;5027689;28;20022;-68
2023/03/07 03:08:41;;;;;;;0.60;0.60;;;;;;;-2.64;70.05;97935.66;5027810;28;20025;-68
2023/03/07 03:11:07;;;;;;;0.60;0.60;;;;;;;-2.67;70.72;97922.94;5027846;28;20382;-68
2023/03/07 03:13:32;;;;;;;0.60;0.60;;;;;;;-2.80;71.03;97917.81;5027719;28;20038;-68
2023/03/07 03:15:58;;;;;;;0.60;0.60;;;;;;;-2.78;71.46;97925.44;5027450;28;20049;-68
2023/03/07 03:18:27;;;;;;;0.60;0.60;;;;;;;-2.63;71.76;97915.34;5028031;28;20029;-68
2023/03/07 03:20:52;;;;;;;0.60;0.60;;;;;;;-2.66;71.89;97917.00;5027763;28;20475;-68
2023/03/07 03:23:18;;;;;;;0.60;0.60;;;;;;;-2.58;72.51;97894.16;5027594;28;20026;-68
2023/03/07 03:25:44;;;;;;;0.52;0.52;;;;;;;-2.57;73.06;97894.19;5027746;28;20030;-67
2023/03/07 03:28:09;;;;;;;0.63;0.63;;;;;;;-2.90;73.39;97898.25;5027721;28;20033;-68
2023/03/07 03:30:34;;;;;;;0.60;0.60;;;;;;;-2.88;73.92;97877.13;5027690;28;20026;-67
2023/03/07 03:33:01;;;;;;;0.70;0.70;;;;;;;-2.86;73.95;97888.13;5027433;28;20053;-68
2023/03/07 03:35:27;;;;;;;0.60;0.60;;;;;;;-2.84;73.72;97874.63;5027512;28;20018;-69
2023/03/07 03:37:52;;;;;;;0.60;0.60;;;;;;;-3.02;74.11;97843.22;5027587;28;20033;-69
2023/03/07 03:40:18;;;;;;;0.70;0.70;;;;;;;-2.32;74.04;97850.22;5027048;28;20045;-68
2023/03/07 03:42:44;;;;;;;0.60;0.60;;;;;;;-2.83;74.46;97850.91;5025619;28;20022;-69
2023/03/07 03:45:10;;;;;;;0.60;0.60;;;;;;;-2.80;75.31;97836.53;5027706;28;20026;-70
2023/03/07 03:47:36;;;;;;;0.60;0.60;;;;;;;-3.00;75.83;97839.81;5027390;28;20021;-69
2023/03/07 03:50:03;;;;;;;0.60;0.60;;;;;;;-2.89;75.79;97818.72;5026824;28;20038;-69
2023/03/07 03:52:29;;;;;;;0.60;0.60;;;;;;;-2.95;75.77;97824.59;5026725;28;20479;-69
2023/03/07 03:54:54;;;;;;;0.60;0.60;;;;;;;-2.95;75.95;97822.06;5027290;28;20046;-68
2023/03/07 03:57:19;;;;;;;0.60;0.60;;;;;;;-2.99;76.53;97810.22;5026890;28;20030;-68
2023/03/07 03:59:45;;;;;;;0.60;0.60;;;;;;;-3.00;76.28;97818.66;5026675;28;20034;-68
2023/03/07 04:02:11;;;;;;;0.70;0.70;;;;;;;-2.71;75.81;97805.22;5025502;28;20029;-69
2023/03/07 04:04:37;;;;;;;0.60;0.60;;;;;;;-2.81;76.17;97794.19;5026825;28;20033;-69
2023/03/07 04:07:03;;;;;;;0.60;0.60;;;;;;;-2.74;76.73;97792.53;5026825;28;20022;-68
2023/03/07 04:09:30;;;;;;;0.60;0.60;;;;;;;-2.93;76.60;97773.84;5026900;28;20033;-70
2023/03/07 04:11:55;;;;;;;0.60;0.60;;;;;;;-2.82;76.81;97777.25;5026594;28;20042;-68
2023/03/07 04:14:21;;;;;;;0.60;0.60;;;;;;;-2.75;76.04;97753.56;5027259;28;20026;-71
2023/03/07 04:16:46;;;;;;;0.60;0.60;;;;;;;-2.92;77.13;97756.06;5026695;28;20049;-69
2023/03/07 04:19:12;;;;;;;0.60;0.60;;;;;;;-2.97;77.85;97741.69;5026757;28;20110;-69
2023/03/07 04:21:39;;;;;;;0.60;0.60;;;;;;;-3.20;78.20;97750.91;5026645;28;20528;-69
2023/03/07 04:24:06;;;;;;;0.60;0.60;;;;;;;-3.19;78.45;97728.88;5026851;28;20053;-69
2023/03/07 04:26:32;;;;;;;0.60;0.60;;;;;;;-3.05;78.45;97706.13;5026528;28;20032;-68
2023/03/07 04:28:57;;;;;;;0.70;0.70;;;;;;;-3.12;78.35;97707.78;5026445;28;20134;-70
2023/03/07 04:31:25;;;;;;;0.60;0.60;;;;;;;-3.07;78.20;97716.28;5026381;28;20028;-69
2023/03/07 04:33:52;;;;;;;0.70;0.70;;;;;;;-3.26;78.61;97693.34;5025047;28;20112;-70
2023/03/07 04:36:19;;;;;;;0.60;0.60;;;;;;;-3.20;78.79;97687.47;5024709;28;20037;-70
2023/03/07 04:38:46;;;;;;;0.60;0.60;;;;;;;-3.13;78.43;97671.41;5026091;28;20017;-70
2023/03/07 04:41:16;;;;;;;0.60;0.60;;;;;;;-3.36;79.15;97674.72;5026269;28;20037;-69
2023/03/07 04:43:42;;;;;;;0.60;0.60;;;;;;;-3.39;79.52;97664.56;5026271;28;20029;-70
2023/03/07 04:46:09;;;;;;;0.60;0.60;;;;;;;-3.20;79.24;97658.69;5024564;28;20267;-68
2023/03/07 04:48:34;;;;;;;0.60;0.60;;;;;;;-3.29;78.98;97645.13;5025946;28;20037;-71
2023/03/07 04:51:00;;;;;;;0.60;0.60;;;;;;;-3.00;78.68;97618.97;5025814;28;20116;-67
2023/03/07 04:53:25;;;;;;;0.60;0.60;;;;;;;-3.21;79.07;97641.78;5024584;28;20061;-70
2023/03/07 04:55:56;;;;;;;0.60;0.60;;;;;;;-2.91;77.69;97620.69;5025837;28;20034;-69
2023/03/07 04:58:21;;;;;;;0.70;0.70;;;;;;;-3.24;78.96;97612.16;5025851;28;20018;-69
2023/03/07 05:00:47;;;;;;;0.60;0.60;;;;;;;-3.24;79.36;97607.94;5025422;28;20291;-68
2023/03/07 05:03:13;;;;;;;0.60;0.60;;;;;;;-3.36;79.62;97590.16;5025735;28;20307;-68
2023/03/07 05:05:40;;;;;;;0.60;0.60;;;;;;;-3.16;79.24;97586.78;5025812;28;20038;-68
2023/03/07 05:08:06;;;;;;;0.50;0.50;;;;;;;-3.29;79.73;97570.72;5025610;28;20045;-68
2023/03/07 05:10:32;;;;;;;0.60;0.60;;;;;;;-3.12;78.99;97578.34;5025628;28;20036;-70
2023/03/07 05:12:58;;;;;;;0.60;0.60;;;;;;;-3.26;79.33;97563.09;5025711;28;20104;-69
2023/03/07 05:15:24;;;;;;;0.68;0.68;;;;;;;-3.38;80.13;97546.16;5025169;28;20504;-70
2023/03/07 05:17:49;;;;;;;0.60;0.60;;;;;;;-3.35;80.14;97548.69;5024684;28;20031;-68
2023/03/07 05:20:15;;;;;;;0.60;0.60;;;;;;;-3.44;80.32;97495.41;5024822;28;20029;-68
2023/03/07 05:22:40;;;;;;;0.60;0.60;;;;;;;-3.36;81.17;97564.78;5024573;28;20017;-68
2023/03/07 05:25:06;;;;;;;0.60;0.60;;;;;;;-3.22;80.19;97500.50;5025155;28;20026;-68
2023/03/07 05:27:32;;;;;;;0.60;0.60;;;;;;;-3.38;80.66;97508.09;5025315;28;20058;-69
2023/03/07 05:29:58;;;;;;;0.60;0.60;;;;;;;-3.32;80.35;97487.81;5025162;28;20018;-70
2023/03/07 05:32:23;;;;;;;0.60;0.60;;;;;;;-3.42;81.48;97478.50;5024200;28;20026;-69
2023/03/07 05:34:49;;;;;;;0.55;0.55;;;;;;;-3.07;81.05;97466.66;5024008;28;20537;-69
2023/03/07 05:37:14;;;;;;;0.60;0.60;;;;;;;-3.28;80.64;97474.28;5025341;28;20094;-71
2023/03/07 05:39:39;;;;;;;0.60;0.60;;;;;;;-3.37;81.44;97443.84;5025235;28;20026;-68
2023/03/07 05:42:05;;;;;;;0.70;0.70;;;;;;;-3.26;81.49;97431.16;5023859;28;20022;-66
2023/03/07 05:44:30;;;;;;;0.60;0.60;;;;;;;-3.39;82.29;97435.38;5025349;28;20018;-69
2023/03/07 05:46:56;;;;;;;0.60;0.60;;;;;;;-3.00;80.54;97408.25;5025016;28;20026;-70
2023/03/07 05:49:21;;;;;;;0.65;0.65;;;;;;;-3.26;80.99;97405.78;5024571;28;20093;-68
2023/03/07 05:51:47;;;;;;;0.60;0.60;;;;;;;-3.40;82.13;97421.84;5025009;28;20116;-68
2023/03/07 05:54:12;;;;;;;0.68;0.68;;;;;;;-3.26;82.59;97396.47;5025169;28;20516;-68
2023/03/07 05:56:38;;;;;;;0.70;0.70;;;;;;;-3.43;82.26;97376.19;5025938;28;20030;-68
2023/03/07 05:59:06;;;;;;;0.60;0.60;;;;;;;-3.31;82.44;97418.47;5025710;28;20109;-67
2023/03/07 06:01:32;;;;;;;0.70;0.70;;;;;;;-3.21;82.58;97393.09;5025347;28;20030;-68
2023/03/07 06:03:57;;;;;;;2.05;1.95;;;;;;;-3.13;81.99;97384.59;5023371;28;20461;-67
2023/03/07 06:06:23;;;;;;;0.70;0.70;;;;;;;-3.37;82.49;97385.50;5025179;28;20070;-67
2023/03/07 06:08:48;;;;;;;0.60;0.60;;;;;;;-3.05;82.12;97363.44;5025201;28;20025;-68
2023/03/07 06:11:13;;;;;;;0.60;0.60;;;;;;;-3.14;81.97;97359.22;5024967;28;20467;-68
2023/03/07 06:13:39;;;;;;;0.70;0.70;;;;;;;-3.44;83.09;97351.69;5025318;28;20036;-67
2023/03/07 06:16:04;;;;;;;0.70;0.70;;;;;;;-3.47;83.94;97350.84;5024064;28;20064;-68
2023/03/07 06:18:30;;;;;;;0.63;0.63;;;;;;;-3.30;83.26;97349.13;5025796;28;20029;-68
2023/03/07 06:21:04;;;;;;;0.70;0.70;;;;;;;-3.28;83.55;97360.13;5024829;28;20022;-67
2023/03/07 06:23:31;;;;;;;0.60;0.60;;;;;;;-3.21;83.51;97342.34;5024936;28;20086;-66
2023/03/07 06:25:58;;;;;;;0.60;0.60;;;;;;;-3.37;83.47;97345.75;5025694;28;20334;-68
2023/03/07 06:28:24;;;;;;;0.60;0.60;;;;;;;-3.20;83.08;97354.16;5025286;28;20025;-70
2023/03/07 06:30:50;;;;;;;0.70;0.70;;;;;;;-3.34;83.84;97331.38;5024618;28;20026;-66
2023/03/07 06:33:15;;;;;;;0.70;0.70;;;;;;;-3.32;84.18;97344.91;5025294;28;20021;-67
2023/03/07 06:35:42;;;;;;;0.60;0.60;;;;;;;-3.00;82.65;97341.41;5024773;28;20060;-68
2023/03/07 06:38:10;;;;;;;0.60;0.60;;;;;;;-3.08;82.97;97345.69;5024873;28;20085;-70
2023/03/07 06:40:36;;;;;;;1.50;1.50;;;;;;;-2.70;81.78;97316.75;5023536;28;20497;-68
2023/03/07 06:43:01;;;;;;;0.60;0.60;;;;;;;-2.86;82.38;97349.00;5024885;28;20024;-67
2023/03/07 06:45:27;;;;;;;0.60;0.60;;;;;;;-3.23;83.60;97311.88;5024545;28;20033;-67
2023/03/07 06:47:52;;;;;;;0.60;0.60;;;;;;;-2.82;82.78;97332.03;5024308;28;20462;-68
2023/03/07 06:50:18;;;;;;;0.60;0.60;;;;;;;-3.19;83.54;97294.94;5024588;28;20057;-68
2023/03/07 06:52:44;;;;;;;0.70;0.70;;;;;;;-3.13;84.09;97294.94;5022918;28;20022;-67
2023/03/07 06:55:10;;;;;;;0.60;0.60;;;;;;;-3.14;84.54;97296.63;5024485;28;20032;-67
2023/03/07 06:57:35;;;;;;;0.65;0.65;;;;;;;-2.97;82.97;97317.72;5024219;28;20030;-76
2023/03/07 07:00:03;;;;;;;0.70;0.70;;;;;;;-3.06;83.28;97300.81;5024076;28;20034;-68
2023/03/07 07:02:28;;;;;;;0.60;0.60;;;;;;;-2.50;80.94;97283.63;5024493;28;20030;-68
2023/03/07 07:04:53;;;;;;;0.60;0.60;;;;;;;-2.87;81.09;97264.34;5024731;28;20025;-67
2023/03/07 07:07:19;;;;;;;0.60;0.60;;;;;;;-2.68;81.63;97287.09;5024448;28;20037;-67
2023/03/07 07:09:44;;;;;;;0.60;0.60;;;;;;;-3.02;81.45;97275.41;5024341;28;20048;-70
2023/03/07 07:12:10;;;;;;;0.65;0.65;;;;;;;-2.92;82.49;97267.75;5024289;28;20030;-67
2023/03/07 07:14:35;;;;;;;0.60;0.60;;;;;;;-2.54;80.97;97264.16;5024128;28;20060;-67
2023/03/07 07:17:01;;;;;;;0.60;0.60;;;;;;;-2.91;81.66;97262.69;5026286;28;20050;-69
2023/03/07 07:19:26;;;;;;;0.70;0.70;;;;;;;-2.77;81.71;97260.09;5028055;28;20025;-69
2023/03/07 07:21:52;;;;;;;0.60;0.60;;;;;;;-3.00;81.99;97239.88;5027603;28;20026;-68
2023/03/07 07:24:18;;;;;;;0.70;0.70;;;;;;;-2.90;81.88;97243.22;5026397;28;20118;-68
2023/03/07 07:26:44;;;;;;;0.60;0.60;;;;;;;-2.92;82.04;97217.84;5026195;28;20503;-69
2023/03/07 07:29:09;;;;;;;0.55;0.55;;;;;;;-2.75;81.86;97220.25;5026099;28;20022;-67
2023/03/07 07:31:35;;;;;;;0.60;0.60;;;;;;;-2.84;81.78;97238.09;5027614;28;20041;-69
2023/03/07 07:34:00;;;;;;;0.60;0.60;;;;;;;-2.57;80.70;97217.63;5028688;28;20079;-66
2023/03/07 07:36:26;;;;;;;0.60;0.60;;;;;;;-2.64;80.29;97217.69;5028776;28;20106;-68
2023/03/07 07:38:51;;;;;;;0.60;0.60;;;;;;;-2.75;80.94;97179.63;5028085;28;20049;-67
2023/03/07 07:41:17;;;;;;;0.60;0.60;;;;;;;-2.53;79.95;97204.91;5027593;28;20029;-67
2023/03/07 07:43:45;;;;;;;0.60;0.60;;;;;;;-2.51;80.35;97184.56;5027129;28;20021;-66
2023/03/07 07:46:11;;;;;;;0.60;0.60;;;;;;;-2.57;80.16;97213.38;5026851;28;20026;-68
2023/03/07 07:48:36;;;;;;;0.60;0.60;;;;;;;-2.50;79.63;97186.25;5027317;28;20107;-67
2023/03/07 07:51:03;;;;;;;0.60;0.60;;;;;;;-2.47;79.18;97168.44;5026991;28;20074;-69
2023/03/07 07:53:29;;;;;;;0.70;0.70;;;;;;;-2.23;78.52;97171.63;5026918;28;20041;-67
2023/03/07 07:55:55;;;;;;;0.60;0.60;;;;;;;-2.50;79.09;97193.84;5027503;28;20026;-68
2023/03/07 07:58:20;;;;;;;0.60;0.60;;;;;;;-2.54;79.73;97189.66;5027355;28;20030;-69
2023/03/07 08:00:46;;;;;;;0.60;0.60;;;;;;;-2.41;78.91;97172.63;5026782;28;20045;-67
2023/03/07 08:03:11;;;;;;;0.60;0.60;;;;;;;-2.43;79.20;97169.25;5026922;28;20022;-68
2023/03/07 08:05:36;;;;;;;0.60;0.60;;;;;;;-2.15;77.00;97149.50;5027181;28;20018;-66
2023/03/07 08:08:02;;;;;;;0.60;0.60;;;;;;;-2.29;77.81;97167.44;5027106;28;20029;-68
2023/03/07 08:10:27;;;;;;;0.60;0.60;;;;;;;-2.33;77.56;97155.59;5027458;28;20045;-68
2023/03/07 08:12:56;;;;;;;0.60;0.60;;;;;;;-2.29;77.59;97139.50;5028076;28;20030;-66
2023/03/07 08:15:21;;;;;;;0.60;0.60;;;;;;;-2.32;77.93;97151.38;5027903;28;20025;-68
2023/03/07 08:17:49;;;;;;;0.60;0.60;;;;;;;-2.22;77.28;97132.63;5025451;28;20046;-68
2023/03/07 08:20:14;;;;;;;0.60;0.60;;;;;;;-2.31;77.66;97125.94;5026515;28;20089;-66
2023/03/07 08:22:40;;;;;;;0.60;0.60;;;;;;;-2.23;77.43;97153.81;5026679;28;20088;-67
2023/03/07 08:25:06;;;;;;;0.60;0.60;;;;;;;-2.17;77.10;97130.88;5026657;28;20113;-68
2023/03/07 08:27:32;;;;;;;0.60;0.60;;;;;;;-2.33;77.50;97149.69;5025199;28;20061;-67
2023/03/07 08:29:59;;;;;;;0.60;0.60;;;;;;;-2.44;77.98;97116.75;5026456;28;20085;-67
2023/03/07 08:32:25;;;;;;;0.60;0.60;;;;;;;-2.41;77.84;97134.53;5026413;28;20029;-66
2023/03/07 08:34:51;;;;;;;0.60;0.60;;;;;;;-2.50;78.18;97113.41;5026338;28;20056;-67
2023/03/07 08:37:17;;;;;;;0.60;0.60;;;;;;;-2.28;77.71;97105.59;5026357;28;20108;-67
2023/03/07 08:39:42;;;;;;;0.60;0.60;;;;;;;-2.30;78.14;97101.38;5024889;28;20022;-67
2023/03/07 08:42:08;;;;;;;0.60;0.60;;;;;;;-2.50;78.61;97093.09;5026099;28;20032;-69
2023/03/07 08:44:33;;;;;;;0.63;0.63;;;;;;;-2.49;79.05;97092.22;5026291;28;20025;-67
2023/03/07 08:46:58;;;;;;;0.60;0.60;;;;;;;-2.36;78.68;97092.09;5025607;28;20033;-68
2023/03/07 08:49:24;;;;;;;0.60;0.60;;;;;;;-2.12;78.16;97070.69;5024742;28;20030;-69
2023/03/07 08:51:49;;;;;;;2.90;2.80;;;;;;;-2.29;78.34;97086.13;5026074;28;20026;-68
2023/03/07 08:54:15;;;;;;;0.60;0.60;;;;;;;-2.27;78.35;97089.47;5025761;28;20141;-68
2023/03/07 08:56:40;;;;;;;0.60;0.60;;;;;;;-1.82;77.03;97085.59;5025848;28;20498;-67
2023/03/07 08:59:06;;;;;;;0.60;0.60;;;;;;;-1.92;76.77;97084.03;5025997;28;20040;-69
2023/03/07 09:01:31;;;;;;;0.60;0.60;;;;;;;-1.68;76.43;97059.16;5025683;28;20033;-67
2023/03/07 09:03:56;;;;;;;0.60;0.60;;;;;;;-1.60;74.69;97062.44;5025780;28;20061;-66
2023/03/07 09:06:22;;;;;;;0.60;0.60;;;;;;;-1.82;75.67;97044.88;5025617;28;20026;-68
2023/03/07 09:08:49;;;;;;;0.60;0.60;;;;;;;-1.73;75.90;97078.69;5024252;28;20113;-67
2023/03/07 09:11:15;;;;;;;0.60;0.60;;;;;;;-1.55;74.82;97045.38;5025794;28;20036;-66
2023/03/07 09:13:41;;;;;;;0.60;0.60;;;;;;;-1.49;73.96;97082.63;5025120;28;20506;-67
2023/03/07 09:16:06;;;;;;;0.60;0.60;;;;;;;-1.36;73.54;97042.59;5025231;28;20030;-66
2023/03/07 09:18:33;;;;;;;0.60;0.60;;;;;;;-1.48;74.13;97042.75;5025504;28;20026;-67
2023/03/07 09:20:59;;;;;;;0.60;0.60;;;;;;;-1.34;73.18;97056.13;5025511;28;20026;-66
2023/03/07 09:23:25;;;;;;;0.60;0.60;;;;;;;-1.53;73.09;97058.94;5025734;28;20021;-66
2023/03/07 09:25:50;;;;;;;0.60;0.60;;;;;;;-1.59;73.73;97055.63;5025570;28;20028;-71
2023/03/07 09:28:15;;;;;;;0.60;0.60;;;;;;;-1.58;74.02;97047.16;5025499;28;20105;-64
2023/03/07 09:30:41;;;;;;;0.57;0.57;;;;;;;-1.62;73.75;97052.28;5023180;28;20152;-66
2023/03/07 09:33:06;;;;;;;0.50;0.50;;;;;;;-1.62;73.91;97071.78;5025089;28;20021;-65
2023/03/07 09:35:32;;;;;;;0.60;0.60;;;;;;;-1.57;73.36;97042.03;5025522;28;20030;-67
2023/03/07 09:37:57;;;;;;;0.60;0.60;;;;;;;-1.50;73.33;97043.63;5024162;28;20033;-65
2023/03/07 09:40:25;;;;;;;0.50;0.50;;;;;;;-1.55;72.92;97040.28;5024772;28;20084;-65
2023/03/07 09:43:19;;;;;;;0.60;0.60;;;;;;;-1.56;72.94;97051.34;5025034;28;20025;-66
2023/03/07 09:46:03;;;;;;;1.42;1.42;;;;;;;-1.59;73.22;97043.75;5023588;28;20050;-66
2023/03/07 09:48:46;;;;;;;0.60;0.60;;;;;;;-1.50;72.49;97041.06;5024928;28;20021;-66
2023/03/07 09:51:12;;;;;;;0.60;0.60;;;;;;;-1.47;72.49;97026.63;5024813;28;20113;-66
2023/03/07 09:54:03;;;;;;;0.60;0.60;;;;;;;-1.59;73.18;97038.66;5024748;28;20044;-66
2023/03/07 09:56:34;;;;;;;0.80;0.80;;;;;;;-1.24;72.08;97039.00;5024990;28;20089;-65
2023/03/07 09:59:11;;;;;;;0.60;0.60;;;;;;;-1.16;71.32;97023.63;5024313;28;20065;-66
2023/03/07 10:01:38;;;;;;;0.60;0.60;;;;;;;-1.42;72.31;97015.50;5023208;28;20051;-66
2023/03/07 10:04:11;;;;;;;0.60;0.60;;;;;;;-1.36;72.29;97019.69;5023830;28;20014;-66
2023/03/07 10:06:39;;;;;;;0.60;0.60;;;;;;;-1.19;72.39;97014.34;5024001;28;20021;-66
2023/03/07 10:09:12;;;;;;;0.60;0.60;;;;;;;-1.34;72.50;97012.84;5024547;28;20078;-66
2023/03/07 10:12:01;;;;;;;0.60;0.60;;;;;;;-1.08;72.09;97021.78;5024588;28;20025;-66
2023/03/07 10:14:57;;;;;;;0.60;0.60;;;;;;;-1.28;72.29;97005.13;5025009;28;20088;-67
2023/03/07 10:18:17;;;;;;;0.60;0.60;;;;;;;-1.17;72.83;96999.03;5024566;28;20030;-68
2023/03/07 10:21:23;;;;;;;0.57;0.57;;;;;;;-1.10;72.21;97008.25;4982967;28;20062;-67
2023/03/07 10:24:02;;;;;;;0.60;0.60;;;;;;;-1.12;72.29;96997.25;4925862;29;20040;-68
2023/03/07 10:26:38;;;;;;;0.60;0.60;;;;;;;-1.22;72.48;97000.81;4925673;29;20036;-67
2023/03/07 10:29:16;;;;;;;0.60;0.60;;;;;;;-1.22;72.77;96978.75;4925808;29;20032;-66
2023/03/07 10:32:09;;;;;;;0.60;0.60;;;;;;;-1.28;72.86;96986.47;4925508;29;20080;-67
2023/03/07 10:34:37;;;;;;;0.60;0.60;;;;;;;-1.13;72.66;96990.47;4925333;29;20477;-67
2023/03/07 10:37:15;;;;;;;1.33;1.33;;;;;;;-1.07;72.43;96987.00;4925371;29;20051;-66
2023/03/07 10:39:53;;;;;;;0.60;0.60;;;;;;;-1.08;72.51;96972.56;4924924;29;20040;-66
2023/03/07 10:42:22;;;;;;;0.60;0.60;;;;;;;-1.13;72.69;96959.91;4925444;29;20028;-66
2023/03/07 10:44:49;;;;;;;0.50;0.50;;;;;;;-0.98;72.53;96965.63;4925656;29;20032;-65
2023/03/07 10:47:21;;;;;;;0.60;0.60;;;;;;;-0.83;72.03;96975.53;4924884;29;20060;-66
2023/03/07 10:49:49;;;;;;;0.80;0.80;;;;;;;-1.07;72.51;96962.34;4925841;29;20054;-68
2023/03/07 10:52:57;;;;;;;0.60;0.60;;;;;;;-0.89;72.63;96965.44;4929019;29;20032;-66
2023/03/07 10:55:48;;;;;;;0.50;0.50;;;;;;;-0.90;72.60;96958.69;4872369;29;20045;-68
2023/03/07 10:58:23;;;;;;;0.70;0.70;;;;;;;-0.81;72.34;96961.06;4875088;29;20041;-66
2023/03/07 11:00:58;;;;;;;0.60;0.60;;;;;;;-0.86;72.49;96964.56;4928604;29;20048;-66
2023/03/07 11:03:44;;;;;;;0.60;0.60;;;;;;;-0.63;71.78;96961.59;4929081;29;20031;-65
2023/03/07 11:06:39;;;;;;;0.60;0.60;;;;;;;-0.70;72.08;96955.75;4928777;29;20568;-65
2023/03/07 11:09:27;;;;;;;0.60;0.60;;;;;;;-0.79;72.38;96950.84;4928783;29;20032;-66
2023/03/07 11:11:53;;;;;;;0.60;0.60;;;;;;;-0.81;72.15;96968.72;4928666;29;20104;-65
2023/03/07 11:14:20;;;;;;;0.60;0.60;;;;;;;-0.86;72.38;96959.47;4928987;29;20063;-67
2023/03/07 11:16:59;;;;;;;0.70;0.70;;;;;;;-0.89;72.57;96965.44;4928363;29;20039;-66
2023/03/07 11:19:30;;;;;;;0.60;0.60;;;;;;;-0.85;72.13;96956.91;4912779;29;20036;-69
2023/03/07 11:21:57;;;;;;;0.70;0.70;;;;;;;-0.87;72.46;96948.44;4928648;29;20032;-66
2023/03/07 11:24:28;;;;;;;0.60;0.60;;;;;;;-0.91;72.45;96954.47;4928550;29;20032;-67
2023/03/07 11:26:56;;;;;;;0.60;0.60;;;;;;;-0.87;72.69;96961.19;5007740;28;20038;-68
2023/03/07 11:29:21;;;;;;;0.60;0.60;;;;;;;-0.81;72.05;96943.22;5027412;28;20022;-66
2023/03/07 11:32:12;;;;;;;0.52;0.52;;;;;;;-0.73;72.39;96943.09;5027202;28;20100;-66
2023/03/07 11:35:01;;;;;;;0.70;0.70;;;;;;;-0.75;72.27;96932.94;5027802;28;20033;-66
2023/03/07 11:37:42;;;;;;;0.60;0.60;;;;;;;-0.71;72.08;96945.59;5027579;28;20033;-66
2023/03/07 11:40:22;;;;;;;0.60;0.60;;;;;;;-0.71;72.06;96938.81;5027802;28;20022;-66